Time;durP1;ratioP1;P1;durP2;ratioP2;P2;SDS_P1;SDS_P2;PMS_P1;PMS_P2;Temp;Humidity;BMP_temperature;BMP_pressure;BME280_temperature;BME280_humidity;BME280_pressure;Samples;Min_cycle;Max_cycle;Signal;HPM_P1;HPM_P2
2022/09/06 00:01:09;;;;;;;0.80;0.80;;;;;;;17.54;78.09;99837.69;5089483;28;20204;-59
2022/09/06 00:03:37;;;;;;;1.60;1.23;;;;;;;17.52;77.93;99837.03;5089760;28;20222;-65
2022/09/06 00:06:11;;;;;;;1.57;0.90;;;;;;;17.48;78.06;99840.81;5089330;28;20202;-59
2022/09/06 00:08:38;;;;;;;1.13;0.90;;;;;;;17.49;78.15;99837.31;5090210;28;20240;-59
2022/09/06 00:11:05;;;;;;;0.80;0.80;;;;;;;17.53;78.33;99836.06;5089138;28;20250;-59
2022/09/06 00:13:32;;;;;;;0.77;0.77;;;;;;;17.54;78.51;99835.94;5089681;28;20230;-65
2022/09/06 00:16:08;;;;;;;1.37;0.97;;;;;;;17.55;78.65;99832.41;5091485;28;20204;-65
2022/09/06 00:18:35;;;;;;;0.90;0.90;;;;;;;17.55;78.21;99826.41;5093592;28;20260;-65
2022/09/06 00:21:03;;;;;;;1.03;0.70;;;;;;;17.61;78.28;99831.03;5092860;28;20205;-66
2022/09/06 00:23:31;;;;;;;1.00;0.90;;;;;;;17.57;77.74;99829.66;5093249;28;20222;-59
2022/09/06 00:26:04;;;;;;;1.03;0.70;;;;;;;17.54;77.35;99835.09;5092871;28;20203;-59
2022/09/06 00:28:31;;;;;;;1.00;0.90;;;;;;;17.58;77.01;99828.72;5093034;28;20220;-59
2022/09/06 00:30:58;;;;;;;0.63;0.63;;;;;;;17.59;76.85;99832.94;5093317;28;20231;-65
2022/09/06 00:33:25;;;;;;;1.40;0.90;;;;;;;17.59;76.58;99833.75;5092970;28;20218;-66
2022/09/06 00:36:00;;;;;;;1.17;0.90;;;;;;;17.58;77.48;99833.88;5092822;28;20214;-65
2022/09/06 00:38:27;;;;;;;0.80;0.80;;;;;;;17.57;78.50;99829.66;5093296;28;20247;-60
2022/09/06 00:40:56;;;;;;;0.90;0.80;;;;;;;17.54;79.25;99830.78;5092932;28;20205;-66
2022/09/06 00:43:23;;;;;;;1.50;1.10;;;;;;;17.54;79.24;99829.94;5093002;28;20727;-66
2022/09/06 00:45:50;;;;;;;1.17;0.80;;;;;;;17.47;78.76;99831.44;5092568;28;20208;-65
2022/09/06 00:48:18;;;;;;;1.10;0.80;;;;;;;17.42;79.42;99824.94;5093508;28;20227;-59
2022/09/06 00:50:46;;;;;;;0.63;0.63;;;;;;;17.39;79.70;99822.63;5092369;28;20208;-65
2022/09/06 00:53:14;;;;;;;0.63;0.63;;;;;;;17.35;79.70;99826.41;5093108;28;20232;-66
2022/09/06 00:55:41;;;;;;;1.13;0.97;;;;;;;17.33;79.33;99825.72;5092482;28;20212;-66
2022/09/06 00:58:10;;;;;;;0.60;0.60;;;;;;;17.32;79.89;99818.13;5092790;28;20222;-65
2022/09/06 01:00:37;;;;;;;0.80;0.80;;;;;;;17.29;79.73;99826.16;5092886;28;20212;-66
2022/09/06 01:03:06;;;;;;;1.30;0.70;;;;;;;17.24;80.17;99816.19;5092256;28;20224;-59
2022/09/06 01:05:42;;;;;;;0.63;0.63;;;;;;;17.24;80.02;99818.78;5096158;28;20612;-65
2022/09/06 01:08:22;;;;;;;0.80;0.80;;;;;;;17.20;79.24;99812.28;5072603;28;20595;-59
2022/09/06 01:11:27;;;;;;;0.70;0.70;;;;;;;17.15;78.88;99815.25;5071924;28;20199;-59
2022/09/06 01:14:08;;;;;;;0.67;0.60;;;;;;;17.12;78.96;99814.72;5058200;28;20669;-59
2022/09/06 01:16:43;;;;;;;1.00;0.90;;;;;;;17.12;78.75;99809.53;5071956;28;20199;-59
2022/09/06 01:19:51;;;;;;;1.13;0.80;;;;;;;17.12;78.55;99814.72;5072405;28;20244;-59
2022/09/06 01:22:39;;;;;;;1.60;0.97;;;;;;;17.12;78.53;99812.13;5071592;28;20246;-65
2022/09/06 01:25:27;;;;;;;1.03;0.97;;;;;;;17.07;78.41;99811.69;5072424;28;20202;-59
2022/09/06 01:28:33;;;;;;;0.73;0.60;;;;;;;17.04;78.46;99811.97;5090928;28;20224;-59
2022/09/06 01:31:17;;;;;;;1.70;0.90;;;;;;;17.06;79.32;99816.06;5091665;28;20202;-59
2022/09/06 01:33:50;;;;;;;0.83;0.73;;;;;;;17.02;78.70;99813.91;5091858;28;20222;-65
2022/09/06 01:36:22;;;;;;;0.93;0.80;;;;;;;17.00;78.67;99810.63;5091479;28;20194;-66
2022/09/06 01:38:49;;;;;;;0.70;0.70;;;;;;;17.00;79.34;99810.63;5092064;28;20218;-65
2022/09/06 01:41:16;;;;;;;0.80;0.73;;;;;;;17.01;78.68;99807.88;5091570;28;20198;-65
2022/09/06 01:43:48;;;;;;;0.70;0.70;;;;;;;16.98;78.54;99813.31;5091826;28;20602;-65
2022/09/06 01:46:23;;;;;;;0.60;0.60;;;;;;;16.93;78.91;99811.16;5091787;28;20675;-65
2022/09/06 01:49:13;;;;;;;0.97;0.77;;;;;;;16.92;78.28;99798.38;5091475;28;20222;-59
2022/09/06 01:51:56;;;;;;;1.90;1.10;;;;;;;16.91;79.04;99807.88;5091025;28;20246;-59
2022/09/06 01:54:34;;;;;;;1.03;0.70;;;;;;;16.91;79.11;99792.38;5091285;28;20226;-59
2022/09/06 01:57:12;;;;;;;1.60;1.10;;;;;;;16.90;78.91;99801.09;5092055;28;20239;-65
2022/09/06 02:00:06;;;;;;;1.27;0.57;;;;;;;16.83;79.31;99794.81;5091533;28;20199;-59
2022/09/06 02:02:47;;;;;;;0.73;0.73;;;;;;;16.72;79.60;99800.06;5091356;28;20225;-59
2022/09/06 02:05:21;;;;;;;0.77;0.77;;;;;;;16.67;80.15;99800.47;5091387;28;20224;-59
2022/09/06 02:07:52;;;;;;;0.60;0.60;;;;;;;16.70;80.85;99804.56;5091325;28;20223;-65
2022/09/06 02:10:24;;;;;;;0.60;0.60;;;;;;;16.68;80.41;99802.09;5091026;28;20202;-65
2022/09/06 02:12:54;;;;;;;0.70;0.70;;;;;;;16.69;80.47;99805.50;5090822;28;20229;-59
2022/09/06 02:15:26;;;;;;;0.77;0.63;;;;;;;16.68;80.58;99801.28;5091633;28;20202;-65
2022/09/06 02:17:58;;;;;;;1.00;0.80;;;;;;;16.67;80.64;99804.81;5090841;28;20260;-66
2022/09/06 02:20:30;;;;;;;0.70;0.70;;;;;;;16.66;80.43;99788.50;5090815;28;20200;-65
2022/09/06 02:23:00;;;;;;;1.00;0.77;;;;;;;16.65;80.39;99796.38;5090987;28;20227;-61
2022/09/06 02:25:33;;;;;;;0.97;0.97;;;;;;;16.62;80.55;99796.66;5090760;28;20199;-63
2022/09/06 02:28:00;;;;;;;0.70;0.63;;;;;;;16.58;81.46;99790.09;5091212;28;20394;-59
2022/09/06 02:30:29;;;;;;;0.67;0.67;;;;;;;16.56;81.68;99800.56;5090734;28;20206;-65
2022/09/06 02:32:59;;;;;;;0.83;0.83;;;;;;;16.55;81.43;99795.53;5090721;28;20254;-65
2022/09/06 02:35:26;;;;;;;0.60;0.60;;;;;;;16.50;81.82;99794.16;5090882;28;20455;-59
2022/09/06 02:37:54;;;;;;;0.90;0.90;;;;;;;16.48;82.35;99796.06;5090469;28;20228;-59
2022/09/06 02:40:21;;;;;;;0.80;0.70;;;;;;;16.46;83.08;99792.81;5090464;28;20198;-65
2022/09/06 02:42:48;;;;;;;0.70;0.70;;;;;;;16.45;83.48;99798.09;5090427;28;20213;-59
2022/09/06 02:45:15;;;;;;;0.80;0.80;;;;;;;16.39;83.59;99799.44;5090649;28;20196;-65
2022/09/06 02:47:43;;;;;;;1.70;1.07;;;;;;;16.28;83.19;99794.34;5090561;28;20241;-65
2022/09/06 02:50:12;;;;;;;1.43;0.80;;;;;;;16.19;83.52;99805.47;5090675;28;20190;-59
2022/09/06 02:52:38;;;;;;;0.63;0.60;;;;;;;16.07;84.21;99797.81;5090382;28;20283;-64
2022/09/06 02:55:07;;;;;;;2.37;0.70;;;;;;;16.10;84.43;99796.72;5090510;28;20198;-59
2022/09/06 02:57:34;;;;;;;0.93;0.80;;;;;;;16.13;85.42;99795.66;5090531;28;20243;-65
2022/09/06 03:00:01;;;;;;;1.23;0.90;;;;;;;16.01;85.50;99798.31;5090375;28;20221;-65
2022/09/06 03:02:27;;;;;;;0.80;0.80;;;;;;;15.80;85.69;99806.09;5090222;28;20210;-65
2022/09/06 03:04:56;;;;;;;0.93;0.70;;;;;;;15.72;86.02;99807.66;5090251;28;20203;-65
2022/09/06 03:07:23;;;;;;;1.60;1.23;;;;;;;15.67;86.36;99799.44;5090161;28;20202;-59
2022/09/06 03:09:50;;;;;;;0.60;0.60;;;;;;;15.61;86.75;99796.41;5090241;28;20207;-65
2022/09/06 03:12:17;;;;;;;0.77;0.77;;;;;;;15.65;86.70;99796.16;5090040;28;20234;-60
2022/09/06 03:14:44;;;;;;;0.60;0.60;;;;;;;15.72;86.99;99803.31;5090062;28;20235;-65
2022/09/06 03:17:11;;;;;;;0.73;0.73;;;;;;;15.79;86.79;99803.63;5089851;28;20194;-65
2022/09/06 03:19:37;;;;;;;1.03;0.97;;;;;;;15.81;86.41;99801.72;5089949;28;20295;-64
2022/09/06 03:22:06;;;;;;;1.10;0.80;;;;;;;15.87;86.32;99808.97;5089856;28;20198;-59
2022/09/06 03:24:33;;;;;;;0.80;0.73;;;;;;;15.94;86.45;99812.69;5089818;28;20206;-65
2022/09/06 03:26:59;;;;;;;0.70;0.70;;;;;;;15.90;86.65;99821.59;5089550;28;20208;-59
2022/09/06 03:29:26;;;;;;;0.87;0.80;;;;;;;15.87;86.98;99816.69;5089761;28;20255;-65
2022/09/06 03:31:53;;;;;;;1.43;1.10;;;;;;;15.83;87.83;99810.97;5089429;28;20208;-59
2022/09/06 03:34:20;;;;;;;0.80;0.80;;;;;;;15.84;87.57;99816.94;5089990;28;20230;-59
2022/09/06 03:36:47;;;;;;;0.93;0.83;;;;;;;15.75;88.24;99815.94;5089454;28;20199;-59
2022/09/06 03:39:15;;;;;;;1.17;0.80;;;;;;;15.68;88.90;99814.00;5089515;28;20232;-65
2022/09/06 03:41:42;;;;;;;0.70;0.70;;;;;;;15.70;89.08;99815.50;5089267;28;20368;-65
2022/09/06 03:44:09;;;;;;;1.30;0.80;;;;;;;15.79;88.89;99811.34;5089570;28;20218;-65
2022/09/06 03:46:36;;;;;;;1.40;0.77;;;;;;;15.85;88.61;99808.25;5089399;28;20201;-65
2022/09/06 03:49:03;;;;;;;1.13;1.03;;;;;;;15.88;89.21;99808.00;5089998;28;20305;-59
2022/09/06 03:51:30;;;;;;;0.63;0.63;;;;;;;15.90;89.13;99808.72;5092896;28;20208;-59
2022/09/06 03:53:57;;;;;;;0.60;0.60;;;;;;;15.95;89.52;99810.91;5093860;28;20243;-65
2022/09/06 03:56:25;;;;;;;0.87;0.67;;;;;;;16.01;89.66;99807.81;5093517;28;20208;-65
2022/09/06 03:58:52;;;;;;;1.87;1.00;;;;;;;16.06;89.62;99816.00;5093413;28;20226;-59
2022/09/06 04:01:19;;;;;;;0.30;0.30;;;;;;;16.11;89.41;99813.84;5093424;28;20200;-59
2022/09/06 04:03:47;;;;;;;0.83;0.83;;;;;;;16.18;89.21;99809.81;5093524;28;20258;-65
2022/09/06 04:06:14;;;;;;;1.40;1.03;;;;;;;16.22;89.60;99821.50;5093689;28;20264;-65
2022/09/06 04:08:41;;;;;;;0.97;0.73;;;;;;;16.25;89.71;99816.06;5093668;28;20225;-60
2022/09/06 04:11:08;;;;;;;1.13;0.90;;;;;;;16.28;90.06;99815.00;5093432;28;20207;-59
2022/09/06 04:13:37;;;;;;;2.03;0.93;;;;;;;16.40;90.71;99829.44;5093487;28;20240;-65
2022/09/06 04:16:04;;;;;;;0.83;0.63;;;;;;;16.42;90.99;99821.59;5093307;28;20202;-59
2022/09/06 04:18:31;;;;;;;0.70;0.70;;;;;;;16.47;91.38;99820.25;5093672;28;20249;-65
2022/09/06 04:20:59;;;;;;;0.60;0.60;;;;;;;16.43;91.39;99818.03;5093181;28;20284;-64
2022/09/06 04:23:27;;;;;;;1.17;0.87;;;;;;;16.42;91.63;99826.75;5093187;28;20224;-64
2022/09/06 04:25:56;;;;;;;1.10;1.00;;;;;;;16.42;90.90;99827.56;5092847;28;20194;-65
2022/09/06 04:28:25;;;;;;;1.17;0.70;;;;;;;16.46;89.98;99823.78;5093068;28;20228;-65
2022/09/06 04:30:55;;;;;;;1.20;0.87;;;;;;;16.49;89.41;99830.44;5093161;28;20327;-65
2022/09/06 04:33:24;;;;;;;2.13;0.93;;;;;;;16.58;88.51;99831.41;5093062;28;20239;-65
2022/09/06 04:35:52;;;;;;;5.20;2.27;;;;;;;16.64;87.15;99836.03;5093008;28;20208;-59
2022/09/06 04:38:20;;;;;;;2.00;1.40;;;;;;;16.67;87.81;99820.31;5092742;28;20648;-59
2022/09/06 04:40:46;;;;;;;2.07;1.23;;;;;;;16.62;87.55;99827.63;5092827;28;20289;-65
2022/09/06 04:43:13;;;;;;;1.47;1.10;;;;;;;16.57;87.97;99822.84;5093070;28;20230;-65
2022/09/06 04:45:41;;;;;;;1.57;1.13;;;;;;;16.64;87.82;99826.56;5092879;28;20202;-65
2022/09/06 04:48:09;;;;;;;1.43;1.33;;;;;;;16.75;87.18;99823.03;5093274;28;20218;-65
2022/09/06 04:50:37;;;;;;;1.10;1.00;;;;;;;16.77;87.01;99826.34;5092754;28;20202;-65
2022/09/06 04:53:04;;;;;;;1.10;0.97;;;;;;;16.74;86.95;99831.75;5092283;28;20229;-65
2022/09/06 04:55:32;;;;;;;1.10;1.00;;;;;;;16.78;86.99;99827.16;5093083;28;20367;-59
2022/09/06 04:58:00;;;;;;;1.30;1.10;;;;;;;16.78;88.15;99820.22;5092575;28;20270;-59
2022/09/06 05:00:27;;;;;;;0.80;0.70;;;;;;;16.74;87.81;99822.22;5092571;28;20196;-59
2022/09/06 05:02:54;;;;;;;0.83;0.70;;;;;;;16.74;87.96;99827.38;5092531;28;20217;-59
2022/09/06 05:05:22;;;;;;;0.67;0.67;;;;;;;16.78;88.10;99821.97;5092473;28;20252;-59
2022/09/06 05:07:52;;;;;;;1.00;1.00;;;;;;;16.86;88.37;99824.72;5092434;28;20231;-65
2022/09/06 05:10:19;;;;;;;0.97;0.80;;;;;;;16.97;88.50;99822.84;5092654;28;20911;-59
2022/09/06 05:12:48;;;;;;;1.00;0.87;;;;;;;16.95;88.86;99829.09;5092005;28;20248;-59
2022/09/06 05:15:16;;;;;;;1.37;1.10;;;;;;;17.01;87.61;99820.81;5092264;28;20198;-59
2022/09/06 05:17:43;;;;;;;0.93;0.80;;;;;;;17.12;87.21;99827.63;5092566;28;20769;-65
2022/09/06 05:20:11;;;;;;;1.17;1.03;;;;;;;17.20;88.65;99832.94;5092240;28;20211;-65
2022/09/06 05:22:40;;;;;;;1.27;1.17;;;;;;;17.19;88.66;99832.13;5091815;28;20251;-65
2022/09/06 05:25:08;;;;;;;1.30;1.07;;;;;;;17.14;88.96;99830.91;5091881;28;20764;-65
2022/09/06 05:27:35;;;;;;;1.10;0.90;;;;;;;17.12;88.74;99831.03;5090326;28;20224;-65
2022/09/06 05:30:03;;;;;;;1.30;0.97;;;;;;;17.12;88.87;99827.63;5092148;28;20715;-65
2022/09/06 05:32:30;;;;;;;1.30;1.17;;;;;;;17.12;89.08;99823.28;5091621;28;20343;-64
2022/09/06 05:34:57;;;;;;;2.63;0.80;;;;;;;17.13;89.30;99826.66;5091326;28;20195;-65
2022/09/06 05:37:24;;;;;;;0.90;0.83;;;;;;;17.12;89.03;99830.22;5090954;28;20315;-65
2022/09/06 05:39:52;;;;;;;1.13;0.90;;;;;;;17.10;89.99;99826.94;5091421;28;20202;-64
2022/09/06 05:42:19;;;;;;;1.17;1.00;;;;;;;17.16;89.91;99831.56;5090666;28;20210;-65
2022/09/06 05:44:46;;;;;;;0.60;0.57;;;;;;;17.19;89.35;99831.28;5091461;28;20194;-59
2022/09/06 05:47:13;;;;;;;0.80;0.80;;;;;;;17.20;90.16;99836.34;5090990;28;20602;-59
2022/09/06 05:49:40;;;;;;;1.13;0.83;;;;;;;17.17;90.71;99838.38;5091059;28;20205;-64
2022/09/06 05:52:07;;;;;;;2.13;1.03;;;;;;;17.20;91.33;99838.09;5091053;28;20210;-65
2022/09/06 05:54:34;;;;;;;0.77;0.73;;;;;;;17.29;91.60;99837.28;5091175;28;20238;-65
2022/09/06 05:57:02;;;;;;;1.20;1.10;;;;;;;17.37;91.40;99837.44;5090581;28;20201;-59
2022/09/06 05:59:29;;;;;;;0.93;0.93;;;;;;;17.42;91.15;99830.09;5091034;28;20223;-59
2022/09/06 06:01:56;;;;;;;0.90;0.90;;;;;;;17.42;91.45;99831.84;5091113;28;20555;-65
2022/09/06 06:04:23;;;;;;;0.87;0.80;;;;;;;17.40;91.30;99828.59;5090969;28;20615;-65
2022/09/06 06:06:50;;;;;;;0.63;0.63;;;;;;;17.39;91.63;99832.13;5090473;28;20294;-65
2022/09/06 06:09:17;;;;;;;1.00;0.93;;;;;;;17.42;91.91;99834.44;5090778;28;20224;-65
2022/09/06 06:11:44;;;;;;;1.07;0.87;;;;;;;17.48;92.50;99833.88;5090244;28;20310;-65
2022/09/06 06:14:12;;;;;;;1.30;1.20;;;;;;;17.51;92.08;99837.97;5090534;28;20255;-59
2022/09/06 06:16:39;;;;;;;1.13;1.00;;;;;;;17.59;90.54;99838.09;5090310;28;20213;-60
2022/09/06 06:19:06;;;;;;;1.83;0.80;;;;;;;17.65;90.48;99827.19;5090485;28;20231;-59
2022/09/06 06:21:34;;;;;;;1.20;1.10;;;;;;;17.65;90.59;99833.19;5090221;28;20700;-59
2022/09/06 06:24:02;;;;;;;1.23;1.13;;;;;;;17.62;91.56;99832.66;5090581;28;20237;-59
2022/09/06 06:26:31;;;;;;;1.50;1.17;;;;;;;17.62;90.83;99841.22;5089930;28;20201;-65
2022/09/06 06:29:00;;;;;;;1.70;1.20;;;;;;;17.70;89.55;99840.53;5091199;28;20229;-65
2022/09/06 06:31:29;;;;;;;1.10;1.00;;;;;;;17.82;89.44;99828.31;5090300;28;20719;-65
2022/09/06 06:33:57;;;;;;;0.70;0.70;;;;;;;17.90;87.12;99835.38;5090161;28;20232;-59
2022/09/06 06:36:25;;;;;;;0.70;0.70;;;;;;;17.95;86.79;99838.34;5090273;28;20211;-63
2022/09/06 06:38:54;;;;;;;0.80;0.80;;;;;;;17.87;86.01;99841.66;5090360;28;20228;-64
2022/09/06 06:41:23;;;;;;;1.37;1.27;;;;;;;17.98;87.28;99832.91;5090001;28;20221;-59
2022/09/06 06:43:52;;;;;;;0.53;0.53;;;;;;;18.03;87.57;99838.47;5090360;28;20252;-65
2022/09/06 06:46:20;;;;;;;1.87;0.87;;;;;;;18.09;85.05;99836.16;5089885;28;20207;-59
2022/09/06 06:48:48;;;;;;;0.97;0.80;;;;;;;18.15;86.08;99839.94;5089895;28;20215;-65
2022/09/06 06:51:17;;;;;;;1.13;1.03;;;;;;;18.24;85.83;99833.91;5089991;28;20214;-65
2022/09/06 06:53:46;;;;;;;1.40;1.10;;;;;;;18.42;84.15;99839.16;5090095;28;20239;-59
2022/09/06 06:56:18;;;;;;;1.10;0.93;;;;;;;18.43;84.67;99847.75;5089446;28;20684;-59
2022/09/06 06:58:47;;;;;;;1.00;0.90;;;;;;;18.42;83.68;99853.88;5089702;28;20521;-59
2022/09/06 07:01:14;;;;;;;2.47;1.13;;;;;;;18.50;83.84;99843.59;5089837;28;20199;-59
2022/09/06 07:03:41;;;;;;;1.20;1.10;;;;;;;18.51;84.04;99850.44;5089460;28;20699;-65
2022/09/06 07:06:10;;;;;;;1.10;0.80;;;;;;;18.51;83.73;99861.59;5089893;28;20211;-59
2022/09/06 07:08:37;;;;;;;0.80;0.80;;;;;;;18.60;83.15;99854.75;5090263;28;20224;-65
2022/09/06 07:11:05;;;;;;;1.47;1.07;;;;;;;18.59;84.45;99866.09;5089887;28;20205;-65
2022/09/06 07:13:33;;;;;;;1.10;1.00;;;;;;;18.64;83.73;99866.44;5089577;28;20295;-65
2022/09/06 07:16:18;;;;;;;1.17;1.07;;;;;;;18.68;83.63;99867.81;5089522;28;20198;-65
2022/09/06 07:18:46;;;;;;;1.10;1.00;;;;;;;18.80;82.88;99865.88;5089807;28;20263;-59
2022/09/06 07:21:16;;;;;;;0.77;0.73;;;;;;;18.82;83.11;99868.31;5089826;28;20214;-65
2022/09/06 07:23:44;;;;;;;0.90;0.70;;;;;;;18.92;85.61;99869.88;5089698;28;20215;-65
2022/09/06 07:26:14;;;;;;;1.30;1.00;;;;;;;18.95;84.24;99874.78;5088760;28;20229;-59
2022/09/06 07:28:42;;;;;;;0.70;0.70;;;;;;;19.19;84.00;99874.22;5090498;28;20276;-65
2022/09/06 07:31:08;;;;;;;1.33;0.77;;;;;;;19.31;86.09;99876.59;5089531;28;20202;-59
2022/09/06 07:33:36;;;;;;;1.47;1.10;;;;;;;19.55;84.07;99879.41;5089644;28;20241;-65
2022/09/06 07:36:04;;;;;;;2.13;0.93;;;;;;;19.69;82.64;99880.69;5088852;28;20205;-59
2022/09/06 07:38:33;;;;;;;1.23;0.93;;;;;;;19.63;78.59;99886.44;5088463;28;20215;-59
2022/09/06 07:41:01;;;;;;;1.03;0.93;;;;;;;19.67;77.61;99888.63;5086906;28;20207;-61
2022/09/06 07:43:29;;;;;;;1.07;0.90;;;;;;;19.83;79.46;99900.09;5088970;28;20221;-59
2022/09/06 07:46:00;;;;;;;1.07;1.00;;;;;;;19.98;77.25;99895.97;5088536;28;20208;-59
2022/09/06 07:48:30;;;;;;;1.10;1.00;;;;;;;20.16;77.98;99895.13;5088689;28;20294;-65
2022/09/06 07:51:03;;;;;;;0.50;0.50;;;;;;;20.41;76.14;99893.50;5083002;28;20821;-59
2022/09/06 07:53:32;;;;;;;1.00;0.90;;;;;;;20.61;76.66;99891.50;5069709;28;20236;-66
2022/09/06 07:56:00;;;;;;;0.90;0.90;;;;;;;21.10;79.56;99892.50;5082964;28;20197;-59
2022/09/06 07:58:28;;;;;;;0.97;0.90;;;;;;;21.47;76.88;99894.69;5087662;28;20218;-66
2022/09/06 08:01:13;;;;;;;0.90;0.90;;;;;;;21.66;76.99;99890.16;5087017;28;20712;-59
2022/09/06 08:03:40;;;;;;;0.90;0.70;;;;;;;21.86;73.56;99894.03;5087366;28;20216;-59
2022/09/06 08:06:07;;;;;;;1.20;1.10;;;;;;;21.97;73.50;99892.09;5087959;28;20200;-59
2022/09/06 08:08:35;;;;;;;1.20;0.90;;;;;;;22.00;71.88;99896.97;5087868;28;20219;-66
2022/09/06 08:11:03;;;;;;;0.93;0.87;;;;;;;21.93;69.04;99895.03;5088384;28;20232;-59
2022/09/06 08:13:30;;;;;;;1.17;1.07;;;;;;;21.93;66.84;99894.19;5087722;28;20706;-59
2022/09/06 08:15:59;;;;;;;0.73;0.73;;;;;;;21.98;68.42;99888.50;5085495;28;20238;-59
2022/09/06 08:18:26;;;;;;;0.87;0.80;;;;;;;22.13;66.96;99889.44;5087903;28;20229;-59
2022/09/06 08:20:53;;;;;;;0.90;0.80;;;;;;;22.23;66.85;99895.34;5085693;28;20679;-63
2022/09/06 08:23:19;;;;;;;1.00;0.90;;;;;;;22.32;65.31;99891.72;5087523;28;20704;-59
2022/09/06 08:25:57;;;;;;;1.05;0.93;;;;;;;22.40;67.02;99887.44;5085951;28;20587;-59
2022/09/06 08:28:24;;;;;;;0.80;0.80;;;;;;;22.68;69.76;99890.47;5088177;28;20467;-59
2022/09/06 08:30:51;;;;;;;1.30;0.90;;;;;;;22.90;63.69;99883.69;5085631;28;20243;-66
2022/09/06 08:33:20;;;;;;;1.08;0.98;;;;;;;22.91;64.77;99883.50;5087774;28;20650;-59
2022/09/06 08:35:55;;;;;;;0.57;0.57;;;;;;;22.93;62.64;99878.13;5088314;28;20210;-67
2022/09/06 08:38:22;;;;;;;1.10;1.00;;;;;;;22.80;66.57;99884.69;5092774;28;20217;-66
2022/09/06 08:40:50;;;;;;;1.00;0.83;;;;;;;22.80;64.31;99884.69;5093244;28;20202;-59
2022/09/06 08:43:20;;;;;;;0.80;0.80;;;;;;;22.85;61.52;99888.59;5092906;28;20222;-59
2022/09/06 08:45:53;;;;;;;0.70;0.70;;;;;;;22.78;64.44;99881.47;5093425;28;20285;-59
2022/09/06 08:48:20;;;;;;;1.27;1.08;;;;;;;22.76;64.00;99888.63;5092238;28;20716;-60
2022/09/06 08:50:57;;;;;;;0.90;0.90;;;;;;;22.81;65.09;99873.28;5092496;28;20190;-60
2022/09/06 08:53:26;;;;;;;2.58;1.10;;;;;;;22.83;63.54;99870.50;5093137;28;20222;-60
2022/09/06 08:55:59;;;;;;;1.20;0.90;;;;;;;23.05;65.59;99874.16;5092891;28;20194;-60
2022/09/06 08:58:39;;;;;;;1.45;1.15;;;;;;;23.09;61.21;99865.00;5092793;28;20232;-60
2022/09/06 09:01:11;;;;;;;0.75;0.75;;;;;;;23.18;64.02;99870.97;5092915;28;20204;-64
2022/09/06 09:03:40;;;;;;;0.70;0.70;;;;;;;23.27;61.33;99862.94;5093016;28;20213;-64
2022/09/06 09:06:08;;;;;;;1.00;0.90;;;;;;;23.38;61.20;99860.91;5092976;28;20202;-60
2022/09/06 09:08:41;;;;;;;0.70;0.70;;;;;;;23.47;57.11;99865.06;5093335;28;20633;-66
2022/09/06 09:11:14;;;;;;;0.80;0.80;;;;;;;23.38;55.65;99853.06;5092419;28;20202;-61
2022/09/06 09:13:52;;;;;;;0.60;0.60;;;;;;;23.40;61.81;99851.09;5092687;28;20715;-61
2022/09/06 09:16:19;;;;;;;1.10;0.93;;;;;;;23.52;56.34;99857.53;5091999;28;20655;-61
2022/09/06 09:18:49;;;;;;;1.08;0.90;;;;;;;23.61;55.98;99850.44;5092103;28;20233;-65
2022/09/06 09:21:20;;;;;;;1.48;1.15;;;;;;;23.69;57.20;99851.19;5087409;28;20950;-66
2022/09/06 09:23:53;;;;;;;1.00;0.90;;;;;;;23.75;54.68;99834.03;5071780;28;20282;-60
2022/09/06 09:26:22;;;;;;;0.90;0.73;;;;;;;23.86;53.34;99833.59;5082506;28;20198;-64
2022/09/06 09:29:08;;;;;;;0.73;0.65;;;;;;;23.97;57.81;99837.56;5091473;28;20234;-61
2022/09/06 09:31:38;;;;;;;1.30;1.00;;;;;;;24.07;54.19;99835.50;5091069;28;20596;-67
2022/09/06 09:34:05;;;;;;;0.98;0.88;;;;;;;24.07;52.74;99830.25;5091281;28;20626;-65
2022/09/06 09:36:33;;;;;;;0.80;0.80;;;;;;;24.06;55.42;99831.25;5073145;28;20206;-67
2022/09/06 09:39:00;;;;;;;0.90;0.80;;;;;;;24.30;60.12;99826.75;5071266;28;20223;-63
2022/09/06 09:41:31;;;;;;;0.77;0.77;;;;;;;24.55;54.70;99838.56;5085408;28;20233;-63
2022/09/06 09:44:01;;;;;;;0.93;0.85;;;;;;;24.92;56.86;99833.31;5091118;28;20616;-66
2022/09/06 09:46:34;;;;;;;0.75;0.75;;;;;;;25.33;56.66;99830.09;5089985;28;20221;-63
2022/09/06 09:49:06;;;;;;;1.02;0.85;;;;;;;25.76;59.70;99830.84;5090184;28;20214;-67
2022/09/06 09:51:35;;;;;;;0.88;0.77;;;;;;;26.00;52.13;99826.19;5090911;28;20598;-63
2022/09/06 09:54:04;;;;;;;1.20;1.10;;;;;;;25.92;51.32;99830.59;5076558;28;20257;-66
2022/09/06 09:56:37;;;;;;;0.70;0.70;;;;;;;26.14;56.96;99827.88;5086557;28;20198;-67
2022/09/06 09:59:15;;;;;;;0.95;0.90;;;;;;;26.04;50.86;99824.81;5089167;28;20730;-68
2022/09/06 10:01:44;;;;;;;1.10;0.88;;;;;;;25.85;48.49;99827.09;5089787;28;20619;-66
2022/09/06 10:04:17;;;;;;;0.77;0.77;;;;;;;25.69;49.09;99824.75;5085363;28;20237;-62
2022/09/06 10:06:44;;;;;;;2.33;0.90;;;;;;;25.68;51.58;99817.88;5085024;28;20191;-60
2022/09/06 10:09:18;;;;;;;0.90;0.90;;;;;;;26.09;51.65;99815.38;5087973;28;20214;-60
2022/09/06 10:11:56;;;;;;;0.85;0.85;;;;;;;26.37;53.65;99812.66;5088831;28;20194;-68
2022/09/06 10:14:29;;;;;;;0.95;0.70;;;;;;;26.75;50.07;99806.13;5085819;28;20738;-62
2022/09/06 10:16:59;;;;;;;1.35;1.10;;;;;;;26.96;49.02;99795.47;5086494;28;20206;-67
2022/09/06 10:19:40;;;;;;;1.17;1.02;;;;;;;27.07;51.41;99794.06;5086802;28;20229;-62
2022/09/06 10:22:19;;;;;;;4.13;1.40;;;;;;;27.16;47.57;99806.00;5087870;28;20213;-62
2022/09/06 10:25:02;;;;;;;1.30;1.17;;;;;;;26.82;48.21;99799.91;5089097;28;20995;-68
2022/09/06 10:27:29;;;;;;;1.10;0.80;;;;;;;26.72;46.34;99791.59;5086250;28;20313;-60
2022/09/06 10:30:02;;;;;;;0.90;0.80;;;;;;;26.58;47.78;99792.56;5087728;28;20202;-58
2022/09/06 10:32:41;;;;;;;1.23;1.00;;;;;;;26.68;50.94;99787.75;5069226;28;20374;-58
2022/09/06 10:35:20;;;;;;;1.17;1.08;;;;;;;26.79;46.86;99787.19;5070390;28;20222;-63
2022/09/06 10:38:04;;;;;;;1.08;0.98;;;;;;;26.77;47.59;99786.56;5068985;28;20218;-61
2022/09/06 10:40:34;;;;;;;1.00;0.90;;;;;;;26.62;44.86;99783.31;5070218;28;20198;-60
2022/09/06 10:43:07;;;;;;;0.95;0.80;;;;;;;26.75;48.21;99782.53;5088685;28;20229;-64
2022/09/06 10:45:45;;;;;;;1.23;1.10;;;;;;;26.86;47.50;99784.56;5088654;28;20597;-64
2022/09/06 10:48:19;;;;;;;1.45;1.20;;;;;;;27.02;46.45;99791.22;5087891;28;20771;-58
2022/09/06 10:50:52;;;;;;;1.83;1.02;;;;;;;27.22;49.15;99784.19;5086619;28;20196;-61
2022/09/06 10:53:38;;;;;;;0.80;0.80;;;;;;;27.41;46.04;99785.22;5088533;28;20709;-63
2022/09/06 10:56:10;;;;;;;1.30;0.95;;;;;;;27.78;48.60;99777.69;5088804;28;20213;-64
2022/09/06 10:58:49;;;;;;;1.20;1.10;;;;;;;27.80;46.14;99788.81;5088287;28;20222;-59
2022/09/06 11:01:25;;;;;;;1.42;0.90;;;;;;;27.46;45.87;99779.34;5088593;28;20205;-57
2022/09/06 11:03:59;;;;;;;1.10;1.00;;;;;;;27.37;47.02;99783.19;5088820;28;20222;-60
2022/09/06 11:06:32;;;;;;;0.90;0.90;;;;;;;26.99;47.16;99789.00;5086554;28;20205;-60
2022/09/06 11:09:09;;;;;;;0.90;0.90;;;;;;;26.62;44.73;99778.06;5088061;28;20217;-66
2022/09/06 11:11:41;;;;;;;0.90;0.80;;;;;;;26.72;48.59;99783.72;5085525;28;20202;-64
2022/09/06 11:14:12;;;;;;;1.13;0.93;;;;;;;26.64;49.72;99781.28;5086726;28;20210;-65
2022/09/06 11:16:48;;;;;;;0.75;0.63;;;;;;;26.51;49.00;99782.06;5088017;28;20202;-59
2022/09/06 11:19:22;;;;;;;0.95;0.90;;;;;;;26.27;46.02;99782.53;5087530;28;20229;-58
2022/09/06 11:22:30;;;;;;;0.90;0.90;;;;;;;26.04;47.13;99782.88;5087691;28;20215;-64
2022/09/06 11:25:33;;;;;;;0.90;0.90;;;;;;;25.81;50.02;99785.75;5087464;28;20407;-64
2022/09/06 11:28:03;;;;;;;1.50;1.20;;;;;;;25.57;49.35;99769.47;5065346;28;20214;-64
2022/09/06 11:30:31;;;;;;;1.25;0.90;;;;;;;25.42;49.11;99776.59;5085401;28;20199;-66
2022/09/06 11:33:19;;;;;;;1.60;1.08;;;;;;;25.39;48.21;99771.75;5088041;28;20620;-65
2022/09/06 11:35:47;;;;;;;1.00;0.82;;;;;;;25.36;51.38;99772.94;5087129;28;20222;-65
2022/09/06 11:38:23;;;;;;;1.00;0.82;;;;;;;25.40;52.52;99771.56;5087364;28;20214;-66
2022/09/06 11:40:58;;;;;;;0.93;0.80;;;;;;;25.48;50.92;99775.84;5085756;28;20197;-66
2022/09/06 11:43:47;;;;;;;1.55;1.08;;;;;;;25.59;50.72;99761.41;5085842;28;20621;-65
2022/09/06 11:46:51;;;;;;;0.73;0.73;;;;;;;25.63;52.26;99763.47;5086554;28;20213;-65
2022/09/06 11:49:37;;;;;;;1.48;1.00;;;;;;;25.69;49.94;99759.28;5087049;28;20209;-64
2022/09/06 11:52:41;;;;;;;0.93;0.90;;;;;;;25.63;47.72;99760.06;5084014;28;20255;-65